sensor_id;sensor_type;location;lat;lon;timestamp;P1;durP1;ratioP1;P2;durP2;ratioP2
29414;SDS011;20303;48.302;11.914;2024-02-04T00:03:44;2.90;;;1.67;;
29414;SDS011;20303;48.302;11.914;2024-02-04T00:13:45;2.50;;;1.40;;
29414;SDS011;20303;48.302;11.914;2024-02-04T00:23:46;2.38;;;1.30;;
29414;SDS011;20303;48.302;11.914;2024-02-04T00:33:47;2.75;;;1.40;;
29414;SDS011;20303;48.302;11.914;2024-02-04T00:43:48;2.50;;;1.50;;
29414;SDS011;20303;48.302;11.914;2024-02-04T00:53:49;2.05;;;1.15;;
29414;SDS011;20303;48.302;11.914;2024-02-04T01:03:50;1.83;;;1.35;;
29414;SDS011;20303;48.302;11.914;2024-02-04T01:13:51;2.65;;;1.35;;
29414;SDS011;20303;48.302;11.914;2024-02-04T01:23:52;1.60;;;1.20;;
29414;SDS011;20303;48.302;11.914;2024-02-04T01:33:53;6.18;;;1.27;;
29414;SDS011;20303;48.302;11.914;2024-02-04T01:43:54;2.70;;;1.50;;
29414;SDS011;20303;48.302;11.914;2024-02-04T01:53:55;1.90;;;1.30;;
29414;SDS011;20303;48.302;11.914;2024-02-04T02:03:56;3.63;;;1.30;;
29414;SDS011;20303;48.302;11.914;2024-02-04T02:14:00;2.28;;;1.30;;
29414;SDS011;20303;48.302;11.914;2024-02-04T02:34:10;2.67;;;1.10;;
29414;SDS011;20303;48.302;11.914;2024-02-04T02:44:11;1.80;;;1.27;;
29414;SDS011;20303;48.302;11.914;2024-02-04T02:54:13;2.28;;;1.30;;
29414;SDS011;20303;48.302;11.914;2024-02-04T03:04:14;1.48;;;1.00;;
29414;SDS011;20303;48.302;11.914;2024-02-04T03:14:15;1.25;;;0.90;;
29414;SDS011;20303;48.302;11.914;2024-02-04T03:24:17;1.40;;;1.00;;
29414;SDS011;20303;48.302;11.914;2024-02-04T03:34:18;1.20;;;1.00;;
29414;SDS011;20303;48.302;11.914;2024-02-04T03:44:19;1.77;;;1.00;;
29414;SDS011;20303;48.302;11.914;2024-02-04T03:54:20;1.92;;;1.10;;
29414;SDS011;20303;48.302;11.914;2024-02-04T04:04:21;1.10;;;1.00;;
29414;SDS011;20303;48.302;11.914;2024-02-04T04:14:22;1.75;;;1.00;;
29414;SDS011;20303;48.302;11.914;2024-02-04T04:24:23;1.08;;;0.80;;
29414;SDS011;20303;48.302;11.914;2024-02-04T04:34:24;1.23;;;1.00;;
29414;SDS011;20303;48.302;11.914;2024-02-04T04:44:25;0.93;;;0.82;;
29414;SDS011;20303;48.302;11.914;2024-02-04T04:54:29;0.82;;;0.70;;
29414;SDS011;20303;48.302;11.914;2024-02-04T05:04:30;1.05;;;0.90;;
29414;SDS011;20303;48.302;11.914;2024-02-04T05:14:31;1.33;;;1.05;;
29414;SDS011;20303;48.302;11.914;2024-02-04T05:24:32;1.10;;;0.85;;
29414;SDS011;20303;48.302;11.914;2024-02-04T05:34:33;0.93;;;0.80;;
29414;SDS011;20303;48.302;11.914;2024-02-04T05:44:34;1.02;;;0.80;;
29414;SDS011;20303;48.302;11.914;2024-02-04T05:54:38;1.33;;;1.10;;
29414;SDS011;20303;48.302;11.914;2024-02-04T06:04:40;1.58;;;0.90;;
29414;SDS011;20303;48.302;11.914;2024-02-04T06:14:41;0.80;;;0.80;;
29414;SDS011;20303;48.302;11.914;2024-02-04T06:24:42;0.82;;;0.60;;
29414;SDS011;20303;48.302;11.914;2024-02-04T06:34:43;0.95;;;0.80;;
29414;SDS011;20303;48.302;11.914;2024-02-04T06:44:44;1.65;;;0.98;;
29414;SDS011;20303;48.302;11.914;2024-02-04T06:54:45;0.60;;;0.60;;
29414;SDS011;20303;48.302;11.914;2024-02-04T07:04:46;3.42;;;0.70;;
29414;SDS011;20303;48.302;11.914;2024-02-04T07:14:47;0.65;;;0.60;;
29414;SDS011;20303;48.302;11.914;2024-02-04T07:24:48;1.33;;;0.90;;
29414;SDS011;20303;48.302;11.914;2024-02-04T07:34:49;0.95;;;0.68;;
29414;SDS011;20303;48.302;11.914;2024-02-04T07:44:50;1.15;;;0.90;;
29414;SDS011;20303;48.302;11.914;2024-02-04T07:54:51;2.85;;;1.00;;
29414;SDS011;20303;48.302;11.914;2024-02-04T08:04:52;3.85;;;1.10;;
29414;SDS011;20303;48.302;11.914;2024-02-04T08:14:53;5.82;;;1.00;;
29414;SDS011;20303;48.302;11.914;2024-02-04T08:24:54;1.77;;;0.93;;
29414;SDS011;20303;48.302;11.914;2024-02-04T08:34:55;1.88;;;1.00;;
29414;SDS011;20303;48.302;11.914;2024-02-04T08:44:56;2.83;;;1.25;;
29414;SDS011;20303;48.302;11.914;2024-02-04T08:54:57;1.50;;;0.98;;
29414;SDS011;20303;48.302;11.914;2024-02-04T09:04:59;7.20;;;1.30;;
29414;SDS011;20303;48.302;11.914;2024-02-04T09:15:00;5.60;;;1.20;;
29414;SDS011;20303;48.302;11.914;2024-02-04T09:25:02;4.07;;;1.20;;
29414;SDS011;20303;48.302;11.914;2024-02-04T09:35:03;5.78;;;1.25;;
29414;SDS011;20303;48.302;11.914;2024-02-04T09:45:05;4.72;;;1.30;;
29414;SDS011;20303;48.302;11.914;2024-02-04T09:55:06;7.47;;;1.27;;
29414;SDS011;20303;48.302;11.914;2024-02-04T10:05:08;3.55;;;1.40;;
29414;SDS011;20303;48.302;11.914;2024-02-04T10:15:10;2.25;;;1.25;;
29414;SDS011;20303;48.302;11.914;2024-02-04T10:25:13;2.97;;;1.20;;
29414;SDS011;20303;48.302;11.914;2024-02-04T10:35:16;1.92;;;1.10;;
29414;SDS011;20303;48.302;11.914;2024-02-04T10:45:22;5.28;;;1.08;;
29414;SDS011;20303;48.302;11.914;2024-02-04T10:55:26;6.38;;;1.00;;
29414;SDS011;20303;48.302;11.914;2024-02-04T11:05:29;1.65;;;0.90;;
29414;SDS011;20303;48.302;11.914;2024-02-04T11:15:32;2.45;;;0.90;;
29414;SDS011;20303;48.302;11.914;2024-02-04T11:35:47;1.60;;;0.90;;
29414;SDS011;20303;48.302;11.914;2024-02-04T11:46:15;9.23;;;1.05;;
29414;SDS011;20303;48.302;11.914;2024-02-04T11:56:19;2.38;;;0.85;;
29414;SDS011;20303;48.302;11.914;2024-02-04T12:06:21;1.33;;;0.90;;
29414;SDS011;20303;48.302;11.914;2024-02-04T12:16:22;2.17;;;0.93;;
29414;SDS011;20303;48.302;11.914;2024-02-04T12:26:23;1.13;;;0.70;;
29414;SDS011;20303;48.302;11.914;2024-02-04T12:36:25;1.05;;;0.60;;
29414;SDS011;20303;48.302;11.914;2024-02-04T12:46:30;5.38;;;0.80;;
29414;SDS011;20303;48.302;11.914;2024-02-04T12:56:39;3.45;;;0.93;;
29414;SDS011;20303;48.302;11.914;2024-02-04T13:06:46;0.77;;;0.60;;
29414;SDS011;20303;48.302;11.914;2024-02-04T13:16:47;1.92;;;0.70;;
29414;SDS011;20303;48.302;11.914;2024-02-04T13:26:48;0.77;;;0.70;;
29414;SDS011;20303;48.302;11.914;2024-02-04T13:36:49;5.43;;;0.88;;
29414;SDS011;20303;48.302;11.914;2024-02-04T13:46:51;0.80;;;0.60;;
29414;SDS011;20303;48.302;11.914;2024-02-04T13:56:52;6.40;;;0.80;;
29414;SDS011;20303;48.302;11.914;2024-02-04T14:06:53;1.45;;;0.90;;
29414;SDS011;20303;48.302;11.914;2024-02-04T14:16:54;2.60;;;0.90;;
29414;SDS011;20303;48.302;11.914;2024-02-04T14:26:58;12.48;;;1.75;;
29414;SDS011;20303;48.302;11.914;2024-02-04T14:36:59;6.35;;;1.02;;
29414;SDS011;20303;48.302;11.914;2024-02-04T14:47:00;3.97;;;1.17;;
29414;SDS011;20303;48.302;11.914;2024-02-04T14:57:02;1.50;;;0.90;;
29414;SDS011;20303;48.302;11.914;2024-02-04T15:07:03;2.13;;;1.10;;
29414;SDS011;20303;48.302;11.914;2024-02-04T15:17:04;2.22;;;1.13;;
29414;SDS011;20303;48.302;11.914;2024-02-04T15:27:06;3.97;;;1.20;;
29414;SDS011;20303;48.302;11.914;2024-02-04T15:37:07;2.75;;;1.20;;
29414;SDS011;20303;48.302;11.914;2024-02-04T15:47:08;2.75;;;1.10;;
29414;SDS011;20303;48.302;11.914;2024-02-04T15:57:11;3.13;;;0.80;;
29414;SDS011;20303;48.302;11.914;2024-02-04T16:07:13;1.85;;;1.13;;
29414;SDS011;20303;48.302;11.914;2024-02-04T16:17:16;2.10;;;1.00;;
29414;SDS011;20303;48.302;11.914;2024-02-04T16:27:19;2.00;;;0.80;;
29414;SDS011;20303;48.302;11.914;2024-02-04T16:37:20;1.85;;;1.05;;
29414;SDS011;20303;48.302;11.914;2024-02-04T16:47:21;4.20;;;1.25;;
29414;SDS011;20303;48.302;11.914;2024-02-04T16:57:22;1.80;;;1.10;;
29414;SDS011;20303;48.302;11.914;2024-02-04T17:07:24;2.65;;;1.25;;
29414;SDS011;20303;48.302;11.914;2024-02-04T17:17:25;2.83;;;1.20;;
29414;SDS011;20303;48.302;11.914;2024-02-04T17:27:26;2.80;;;1.10;;
29414;SDS011;20303;48.302;11.914;2024-02-04T17:37:27;6.63;;;1.40;;
29414;SDS011;20303;48.302;11.914;2024-02-04T17:47:30;4.50;;;1.10;;
29414;SDS011;20303;48.302;11.914;2024-02-04T17:57:31;4.88;;;1.48;;
29414;SDS011;20303;48.302;11.914;2024-02-04T18:07:32;5.40;;;1.35;;
29414;SDS011;20303;48.302;11.914;2024-02-04T18:17:33;5.90;;;1.30;;
29414;SDS011;20303;48.302;11.914;2024-02-04T18:27:34;2.35;;;1.40;;
29414;SDS011;20303;48.302;11.914;2024-02-04T18:37:36;10.10;;;1.58;;
29414;SDS011;20303;48.302;11.914;2024-02-04T18:47:37;3.97;;;1.50;;
29414;SDS011;20303;48.302;11.914;2024-02-04T18:57:38;7.15;;;1.70;;
29414;SDS011;20303;48.302;11.914;2024-02-04T19:07:43;4.57;;;1.13;;
29414;SDS011;20303;48.302;11.914;2024-02-04T19:17:44;2.45;;;1.52;;
29414;SDS011;20303;48.302;11.914;2024-02-04T19:27:47;4.85;;;1.27;;
29414;SDS011;20303;48.302;11.914;2024-02-04T19:37:49;3.58;;;1.42;;
29414;SDS011;20303;48.302;11.914;2024-02-04T19:47:50;6.07;;;1.63;;
29414;SDS011;20303;48.302;11.914;2024-02-04T19:57:51;4.55;;;1.50;;
29414;SDS011;20303;48.302;11.914;2024-02-04T20:07:52;4.55;;;1.50;;
29414;SDS011;20303;48.302;11.914;2024-02-04T20:17:54;4.30;;;1.40;;
29414;SDS011;20303;48.302;11.914;2024-02-04T20:27:55;3.78;;;1.23;;
29414;SDS011;20303;48.302;11.914;2024-02-04T20:38:01;2.55;;;1.33;;
29414;SDS011;20303;48.302;11.914;2024-02-04T20:48:02;2.47;;;1.20;;
29414;SDS011;20303;48.302;11.914;2024-02-04T20:58:03;2.47;;;1.20;;
29414;SDS011;20303;48.302;11.914;2024-02-04T21:08:05;3.38;;;1.20;;
29414;SDS011;20303;48.302;11.914;2024-02-04T21:18:06;2.08;;;1.25;;
29414;SDS011;20303;48.302;11.914;2024-02-04T21:28:07;1.80;;;1.10;;
29414;SDS011;20303;48.302;11.914;2024-02-04T21:38:08;3.95;;;1.42;;
29414;SDS011;20303;48.302;11.914;2024-02-04T21:48:09;2.75;;;1.27;;
29414;SDS011;20303;48.302;11.914;2024-02-04T21:58:11;4.05;;;1.40;;
29414;SDS011;20303;48.302;11.914;2024-02-04T22:08:12;2.28;;;1.08;;
29414;SDS011;20303;48.302;11.914;2024-02-04T22:18:13;1.38;;;1.00;;
29414;SDS011;20303;48.302;11.914;2024-02-04T22:28:14;2.10;;;1.25;;
29414;SDS011;20303;48.302;11.914;2024-02-04T22:38:15;2.75;;;1.30;;
29414;SDS011;20303;48.302;11.914;2024-02-04T22:48:16;4.78;;;1.42;;
29414;SDS011;20303;48.302;11.914;2024-02-04T23:08:18;5.73;;;1.40;;
29414;SDS011;20303;48.302;11.914;2024-02-04T23:18:20;2.45;;;1.17;;
29414;SDS011;20303;48.302;11.914;2024-02-04T23:28:21;1.90;;;1.20;;
29414;SDS011;20303;48.302;11.914;2024-02-04T23:38:22;2.70;;;1.10;;
29414;SDS011;20303;48.302;11.914;2024-02-04T23:48:24;1.67;;;0.98;;
29414;SDS011;20303;48.302;11.914;2024-02-04T23:58:27;3.13;;;1.30;;
